KCRE/CRE METAR and TAF weather

Enter ICAO airport designator
Station Type Date Time Source
KCRE METAR 2018/07/19 06:53 UTC NOAA

KCRE 190653Z AUTO 04005KT 8SM SCT110 24/23 A2994 RMK AO1 SLP138 T02390233


Station Type Date Time Source
KCRE Decoded METAR 2018/07/19 06:53 UTC NOAA

N. MYRTLE BCH.GRAND STRAND, SC, United States (KCRE) 33-49N 078-43W 10M
Jul 19, 2018 - 02:53 AM EDT / 2018.07.19 0653 UTC
Wind: from the NE (040 degrees) at 6 MPH (5 KT):0
Visibility: 8 mile(s):0
Sky conditions: partly cloudy
Temperature: 75.0 F (23.9 C)
Dew Point: 73.9 F (23.3 C)
Relative Humidity: 96%
Pressure (altimeter): 29.94 in. Hg (1013 hPa)
ob: KCRE 190653Z AUTO 04005KT 8SM SCT110 24/23 A2994 RMK AO1 SLP138 T02390233
cycle: 7

Station Type Date Time Source
KCRE TAF 2018/07/19 06:36 UTC NOAA

TAF KCRE 190534Z 1906/2006 05005KT P6SM SCT100 SCT200
FM191500 09010KT P6SM SCT025 SCT110
FM200300 07007KT P6SM SCT025 BKN100


Example: see airport list